RYR3349 GCTS-LEMG
Flight info
| Callsign | RYR3349 |
|---|---|
| Flight time | 2h 0m |
| Altitude | 32000 |
| Route | KORAL/N0434F340 UG5 SONSO DCT NIRAL UN871 ADUBI DCT VJF |
| Aircraft | B738/M-SDE2E3FGHIRWXY/LB1 |
Departure
| Time | 2026-05-05 16:46 |
|---|---|
| Airport | Tenerife Sur Airport (GCTS) |
Arrival
| Time | 2026-05-05 18:46 |
|---|---|
| Airport | Málaga-Costa del Sol Airport (LEMG) |
| Time | Latitude | Longitude | Altitude | Speed | Heading |
|---|---|---|---|---|---|
| 2026-05-05 16:19 | 28.04588 | -16.57577 | 214 ft | 0 kts | 338° |
| 2026-05-05 16:42 | 28.04590 | -16.57578 | 213 ft | 1 kts | 338° |
| 2026-05-05 16:42 | 28.04620 | -16.57591 | 216 ft | 7 kts | 339° |
| 2026-05-05 16:42 | 28.04629 | -16.57652 | 217 ft | 12 kts | 250° |
| 2026-05-05 16:43 | 28.04562 | -16.57695 | 215 ft | 16 kts | 157° |
| 2026-05-05 16:43 | 28.04470 | -16.57713 | 210 ft | 17 kts | 249° |
| 2026-05-05 16:43 | 28.04413 | -16.57879 | 206 ft | 26 kts | 248° |
| 2026-05-05 16:43 | 28.04336 | -16.58101 | 197 ft | 30 kts | 248° |
| 2026-05-05 16:44 | 28.04262 | -16.58311 | 194 ft | 29 kts | 248° |
| 2026-05-05 16:44 | 28.04191 | -16.58524 | 200 ft | 26 kts | 256° |
| 2026-05-05 16:44 | 28.04130 | -16.58715 | 196 ft | 24 kts | 248° |
| 2026-05-05 16:44 | 28.04071 | -16.58886 | 193 ft | 22 kts | 248° |
| 2026-05-05 16:45 | 28.03987 | -16.59000 | 184 ft | 18 kts | 164° |
| 2026-05-05 16:45 | 28.03907 | -16.58883 | 175 ft | 19 kts | 114° |
| 2026-05-05 16:45 | 28.03925 | -16.58749 | 175 ft | 18 kts | 68° |
| 2026-05-05 16:45 | 28.04040 | -16.58421 | 179 ft | 79 kts | 69° |
| 2026-05-05 16:46 | 28.04325 | -16.57610 | 190 ft | 139 kts | 70° |
| 2026-05-05 16:46 | 28.04730 | -16.56431 | 343 ft | 175 kts | 70° |
| 2026-05-05 16:46 | 28.05147 | -16.55164 | 1094 ft | 175 kts | 70° |
| 2026-05-05 16:46 | 28.05609 | -16.53868 | 1707 ft | 183 kts | 68° |
| 2026-05-05 16:47 | 28.06135 | -16.52445 | 1998 ft | 211 kts | 70° |
| 2026-05-05 16:47 | 28.06688 | -16.50850 | 2572 ft | 228 kts | 70° |
| 2026-05-05 16:47 | 28.07293 | -16.49105 | 3185 ft | 247 kts | 69° |
| 2026-05-05 16:47 | 28.07922 | -16.47300 | 4093 ft | 254 kts | 69° |
| 2026-05-05 16:48 | 28.08559 | -16.45385 | 4894 ft | 265 kts | 77° |
| 2026-05-05 16:48 | 28.08799 | -16.43336 | 5919 ft | 263 kts | 87° |
| 2026-05-05 16:48 | 28.08922 | -16.41282 | 6827 ft | 268 kts | 86° |
| 2026-05-05 16:48 | 28.09077 | -16.39194 | 7716 ft | 271 kts | 85° |
| 2026-05-05 16:49 | 28.09229 | -16.37071 | 8612 ft | 274 kts | 86° |
| 2026-05-05 16:49 | 28.09377 | -16.34929 | 9459 ft | 278 kts | 85° |
| 2026-05-05 16:49 | 28.09541 | -16.32737 | 10304 ft | 281 kts | 85° |
| 2026-05-05 16:49 | 28.09705 | -16.30524 | 11069 ft | 286 kts | 85° |
| 2026-05-05 16:50 | 28.09868 | -16.28279 | 11838 ft | 290 kts | 85° |
| 2026-05-05 16:50 | 28.10033 | -16.26012 | 12612 ft | 293 kts | 85° |
| 2026-05-05 16:50 | 28.10199 | -16.23715 | 13374 ft | 296 kts | 85° |
| 2026-05-05 16:50 | 28.10368 | -16.21375 | 14124 ft | 299 kts | 85° |
| 2026-05-05 16:51 | 28.10536 | -16.19041 | 14841 ft | 301 kts | 84° |
| 2026-05-05 16:51 | 28.10872 | -16.16682 | 15504 ft | 304 kts | 70° |
| 2026-05-05 16:51 | 28.11811 | -16.14525 | 16275 ft | 304 kts | 60° |
| 2026-05-05 16:51 | 28.12838 | -16.12452 | 16897 ft | 307 kts | 62° |
| 2026-05-05 16:52 | 28.13837 | -16.10306 | 17519 ft | 309 kts | 63° |
| 2026-05-05 16:52 | 28.14842 | -16.08156 | 18136 ft | 311 kts | 62° |
| 2026-05-05 16:52 | 28.15863 | -16.05994 | 18726 ft | 314 kts | 62° |
| 2026-05-05 16:52 | 28.16890 | -16.03816 | 19304 ft | 316 kts | 62° |
| 2026-05-05 16:53 | 28.17919 | -16.01630 | 19860 ft | 318 kts | 62° |
| 2026-05-05 16:53 | 28.18975 | -15.99386 | 20423 ft | 320 kts | 62° |
| 2026-05-05 16:53 | 28.20018 | -15.97171 | 20956 ft | 322 kts | 62° |
| 2026-05-05 16:53 | 28.21073 | -15.94926 | 21482 ft | 324 kts | 62° |
| 2026-05-05 16:54 | 28.22132 | -15.92675 | 21982 ft | 326 kts | 62° |
| 2026-05-05 16:54 | 28.23199 | -15.90403 | 22482 ft | 328 kts | 62° |
| 2026-05-05 16:54 | 28.24273 | -15.88115 | 22960 ft | 330 kts | 62° |
| 2026-05-05 16:54 | 28.25350 | -15.85820 | 23431 ft | 332 kts | 62° |
| 2026-05-05 16:55 | 28.26444 | -15.83488 | 23882 ft | 334 kts | 62° |
| 2026-05-05 16:55 | 28.27531 | -15.81170 | 24335 ft | 336 kts | 61° |
| 2026-05-05 16:55 | 28.28626 | -15.78832 | 24750 ft | 338 kts | 61° |
| 2026-05-05 16:55 | 28.29735 | -15.76465 | 25174 ft | 340 kts | 61° |
| 2026-05-05 16:56 | 28.30840 | -15.74104 | 25579 ft | 342 kts | 61° |
| 2026-05-05 16:56 | 28.31952 | -15.71725 | 25992 ft | 343 kts | 61° |
| 2026-05-05 16:56 | 28.33077 | -15.69321 | 26364 ft | 345 kts | 61° |
| 2026-05-05 16:56 | 28.34201 | -15.66914 | 26745 ft | 347 kts | 61° |
| 2026-05-05 16:57 | 28.35342 | -15.64471 | 27116 ft | 349 kts | 61° |
| 2026-05-05 16:57 | 28.36471 | -15.62051 | 27467 ft | 350 kts | 61° |
| 2026-05-05 16:57 | 28.37611 | -15.59605 | 27820 ft | 352 kts | 61° |
| 2026-05-05 16:57 | 28.38756 | -15.57148 | 28143 ft | 354 kts | 61° |
| 2026-05-05 16:58 | 28.39916 | -15.54658 | 28483 ft | 355 kts | 61° |
| 2026-05-05 16:58 | 28.41064 | -15.52192 | 28822 ft | 356 kts | 61° |
| 2026-05-05 16:58 | 28.42232 | -15.49682 | 29150 ft | 357 kts | 60° |
| 2026-05-05 16:58 | 28.43383 | -15.47206 | 29444 ft | 359 kts | 60° |
| 2026-05-05 16:59 | 28.44559 | -15.44676 | 29756 ft | 360 kts | 60° |
| 2026-05-05 16:59 | 28.45726 | -15.42162 | 30043 ft | 361 kts | 60° |
| 2026-05-05 16:59 | 28.46890 | -15.39655 | 30307 ft | 363 kts | 60° |
| 2026-05-05 16:59 | 28.48069 | -15.37112 | 30571 ft | 365 kts | 60° |
| 2026-05-05 17:00 | 28.49244 | -15.34577 | 30844 ft | 366 kts | 61° |
| 2026-05-05 17:00 | 28.50434 | -15.32009 | 31117 ft | 367 kts | 61° |
| 2026-05-05 17:00 | 28.51634 | -15.29417 | 31385 ft | 369 kts | 61° |
| 2026-05-05 17:00 | 28.52825 | -15.26842 | 31630 ft | 370 kts | 61° |
| 2026-05-05 17:01 | 28.54030 | -15.24235 | 31897 ft | 371 kts | 60° |
| 2026-05-05 17:01 | 28.55233 | -15.21632 | 32132 ft | 373 kts | 60° |
| 2026-05-05 17:01 | 28.56438 | -15.19023 | 32375 ft | 374 kts | 60° |
| 2026-05-05 17:01 | 28.57637 | -15.16424 | 32600 ft | 376 kts | 60° |
| 2026-05-05 17:02 | 28.58857 | -15.13776 | 32805 ft | 377 kts | 60° |
| 2026-05-05 17:02 | 28.60081 | -15.11121 | 32993 ft | 380 kts | 61° |
| 2026-05-05 17:02 | 28.62567 | -15.05725 | 33090 ft | 391 kts | 63° |
| 2026-05-05 17:03 | 28.65126 | -15.00155 | 33190 ft | 402 kts | 65° |
| 2026-05-05 17:03 | 28.67749 | -14.94438 | 33287 ft | 413 kts | 66° |
| 2026-05-05 17:04 | 28.70427 | -14.88591 | 33391 ft | 424 kts | 66° |
| 2026-05-05 17:04 | 28.71782 | -14.85635 | 33591 ft | 424 kts | 66° |
| 2026-05-05 17:04 | 28.73140 | -14.82671 | 33844 ft | 425 kts | 66° |
| 2026-05-05 17:05 | 28.74522 | -14.79648 | 34004 ft | 427 kts | 66° |
| 2026-05-05 17:05 | 28.75893 | -14.76647 | 34209 ft | 428 kts | 66° |
| 2026-05-05 17:05 | 28.77265 | -14.73644 | 34394 ft | 429 kts | 66° |
| 2026-05-05 17:05 | 28.78631 | -14.70648 | 34579 ft | 430 kts | 66° |
| 2026-05-05 17:06 | 28.80026 | -14.67590 | 34758 ft | 432 kts | 66° |
| 2026-05-05 17:06 | 28.81394 | -14.64588 | 34929 ft | 433 kts | 66° |
| 2026-05-05 17:06 | 28.82775 | -14.61554 | 35103 ft | 434 kts | 66° |
| 2026-05-05 17:06 | 28.84184 | -14.58455 | 35271 ft | 435 kts | 66° |
| 2026-05-05 17:07 | 28.85563 | -14.55422 | 35440 ft | 436 kts | 66° |
| 2026-05-05 17:07 | 28.86976 | -14.52312 | 35601 ft | 437 kts | 66° |
| 2026-05-05 17:07 | 28.88368 | -14.49244 | 35759 ft | 438 kts | 66° |
| 2026-05-05 17:07 | 28.89772 | -14.46148 | 35910 ft | 439 kts | 66° |
| 2026-05-05 17:08 | 28.92600 | -14.39902 | 35937 ft | 443 kts | 66° |
| 2026-05-05 17:08 | 28.95416 | -14.33680 | 35941 ft | 442 kts | 66° |
| 2026-05-05 17:09 | 28.98241 | -14.27417 | 35939 ft | 452 kts | 66° |
| 2026-05-05 17:09 | 29.01132 | -14.21010 | 35938 ft | 451 kts | 66° |
| 2026-05-05 17:10 | 29.03969 | -14.14715 | 35938 ft | 442 kts | 66° |
| 2026-05-05 17:10 | 29.06758 | -14.08509 | 35939 ft | 438 kts | 66° |
| 2026-05-05 17:11 | 29.09507 | -14.02381 | 35939 ft | 435 kts | 65° |
| 2026-05-05 17:11 | 29.12266 | -13.96223 | 35939 ft | 432 kts | 65° |
| 2026-05-05 17:12 | 29.14984 | -13.90146 | 35939 ft | 432 kts | 65° |
| 2026-05-05 17:12 | 29.17731 | -13.83998 | 35939 ft | 433 kts | 65° |
| 2026-05-05 17:13 | 29.20453 | -13.77894 | 35939 ft | 433 kts | 65° |
| 2026-05-05 17:13 | 29.23191 | -13.71736 | 35939 ft | 432 kts | 65° |
| 2026-05-05 17:14 | 29.25910 | -13.65622 | 35939 ft | 432 kts | 65° |
| 2026-05-05 17:14 | 29.28636 | -13.59495 | 35939 ft | 433 kts | 65° |
| 2026-05-05 17:15 | 29.31353 | -13.53406 | 35938 ft | 433 kts | 65° |
| 2026-05-05 17:15 | 29.34084 | -13.47227 | 35939 ft | 432 kts | 65° |
| 2026-05-05 17:16 | 29.36773 | -13.41099 | 35939 ft | 432 kts | 65° |
| 2026-05-05 17:16 | 29.39473 | -13.34950 | 35939 ft | 433 kts | 65° |
| 2026-05-05 17:17 | 29.42176 | -13.28798 | 36017 ft | 431 kts | 65° |
| 2026-05-05 17:17 | 29.44874 | -13.22663 | 36019 ft | 432 kts | 65° |
| 2026-05-05 17:18 | 29.47588 | -13.16524 | 36020 ft | 432 kts | 65° |
| 2026-05-05 17:18 | 29.50318 | -13.10364 | 36020 ft | 439 kts | 66° |
| 2026-05-05 17:19 | 29.53092 | -13.04069 | 36020 ft | 447 kts | 67° |
| 2026-05-05 17:19 | 29.55891 | -12.97652 | 36020 ft | 455 kts | 67° |
| 2026-05-05 17:20 | 29.58748 | -12.91092 | 36020 ft | 461 kts | 67° |
| 2026-05-05 17:20 | 29.61611 | -12.84543 | 36019 ft | 459 kts | 67° |
| 2026-05-05 17:21 | 29.64439 | -12.78013 | 36020 ft | 457 kts | 67° |
| 2026-05-05 17:22 | 29.68681 | -12.68186 | 36020 ft | 458 kts | 67° |
| 2026-05-05 17:22 | 29.71507 | -12.61644 | 36020 ft | 458 kts | 67° |
| 2026-05-05 17:23 | 29.74623 | -12.55287 | 36020 ft | 462 kts | 59° |
| 2026-05-05 17:23 | 29.78284 | -12.49225 | 36019 ft | 462 kts | 59° |
| 2026-05-05 17:24 | 29.81870 | -12.43096 | 36019 ft | 461 kts | 59° |
| 2026-05-05 17:24 | 29.85458 | -12.36985 | 36020 ft | 462 kts | 59° |
| 2026-05-05 17:25 | 29.89083 | -12.30884 | 36019 ft | 462 kts | 59° |
| 2026-05-05 17:25 | 29.92707 | -12.24771 | 36020 ft | 462 kts | 59° |
| 2026-05-05 17:26 | 29.96272 | -12.18689 | 36005 ft | 462 kts | 59° |
| 2026-05-05 17:26 | 29.99882 | -12.12582 | 35984 ft | 463 kts | 57° |
| 2026-05-05 17:27 | 30.04200 | -12.07023 | 35966 ft | 468 kts | 47° |
| 2026-05-05 17:27 | 30.08848 | -12.01828 | 35948 ft | 467 kts | 47° |
| 2026-05-05 17:28 | 30.13481 | -11.96551 | 35939 ft | 467 kts | 47° |
| 2026-05-05 17:28 | 30.18114 | -11.91326 | 35938 ft | 467 kts | 47° |
| 2026-05-05 17:29 | 30.22775 | -11.86122 | 35939 ft | 468 kts | 47° |
| 2026-05-05 17:29 | 30.27428 | -11.80906 | 35938 ft | 468 kts | 47° |
| 2026-05-05 17:30 | 30.32085 | -11.75662 | 35939 ft | 468 kts | 47° |
| 2026-05-05 17:30 | 30.36721 | -11.70445 | 35939 ft | 468 kts | 47° |
| 2026-05-05 17:31 | 30.41344 | -11.65168 | 35939 ft | 468 kts | 47° |
| 2026-05-05 17:31 | 30.45956 | -11.59889 | 35951 ft | 468 kts | 47° |
| 2026-05-05 17:32 | 30.50610 | -11.54623 | 35967 ft | 467 kts | 47° |
| 2026-05-05 17:32 | 30.55233 | -11.49411 | 35987 ft | 467 kts | 47° |
| 2026-05-05 17:33 | 30.59906 | -11.44131 | 35993 ft | 468 kts | 47° |
| 2026-05-05 17:33 | 30.64527 | -11.38869 | 35993 ft | 467 kts | 47° |
| 2026-05-05 17:34 | 30.69126 | -11.33612 | 35993 ft | 467 kts | 47° |
| 2026-05-05 17:34 | 30.73772 | -11.28352 | 35993 ft | 468 kts | 48° |
| 2026-05-05 17:35 | 30.78399 | -11.23053 | 35993 ft | 467 kts | 48° |
| 2026-05-05 17:35 | 30.82987 | -11.17757 | 35993 ft | 467 kts | 48° |
| 2026-05-05 17:36 | 30.87625 | -11.12471 | 35992 ft | 468 kts | 47° |
| 2026-05-05 17:36 | 30.92233 | -11.07194 | 35993 ft | 468 kts | 47° |
| 2026-05-05 17:37 | 30.96867 | -11.01840 | 35993 ft | 471 kts | 46° |
| 2026-05-05 17:37 | 31.01537 | -10.96470 | 35993 ft | 473 kts | 45° |
| 2026-05-05 17:38 | 31.06203 | -10.91135 | 35993 ft | 473 kts | 45° |
| 2026-05-05 17:38 | 31.10893 | -10.85759 | 35993 ft | 475 kts | 46° |
| 2026-05-05 17:39 | 31.15594 | -10.80295 | 35992 ft | 477 kts | 46° |
| 2026-05-05 17:39 | 31.20300 | -10.74855 | 35993 ft | 476 kts | 45° |
| 2026-05-05 17:40 | 31.25011 | -10.69418 | 35992 ft | 477 kts | 45° |
| 2026-05-05 17:40 | 31.29707 | -10.63994 | 35993 ft | 477 kts | 46° |
| 2026-05-05 17:41 | 31.34384 | -10.58534 | 35993 ft | 476 kts | 46° |
| 2026-05-05 17:41 | 31.39073 | -10.53066 | 35993 ft | 477 kts | 46° |
| 2026-05-05 17:42 | 31.43798 | -10.47590 | 35993 ft | 476 kts | 45° |
| 2026-05-05 17:42 | 31.48482 | -10.42145 | 35993 ft | 477 kts | 46° |
| 2026-05-05 17:43 | 31.53145 | -10.36687 | 35993 ft | 477 kts | 46° |
| 2026-05-05 17:43 | 31.57824 | -10.31154 | 35993 ft | 476 kts | 47° |
| 2026-05-05 17:44 | 31.62482 | -10.25657 | 35993 ft | 477 kts | 46° |
| 2026-05-05 17:44 | 31.67169 | -10.20174 | 35993 ft | 476 kts | 46° |
| 2026-05-05 17:45 | 31.71837 | -10.14700 | 35993 ft | 477 kts | 46° |
| 2026-05-05 17:45 | 31.76516 | -10.09185 | 35993 ft | 477 kts | 46° |
| 2026-05-05 17:46 | 31.81171 | -10.03681 | 35992 ft | 477 kts | 46° |
| 2026-05-05 17:46 | 31.85835 | -9.98156 | 35993 ft | 476 kts | 46° |
| 2026-05-05 17:47 | 31.90471 | -9.92647 | 35993 ft | 477 kts | 46° |
| 2026-05-05 17:47 | 31.95198 | -9.87097 | 35993 ft | 477 kts | 46° |
| 2026-05-05 17:48 | 31.99885 | -9.81599 | 35993 ft | 476 kts | 46° |
| 2026-05-05 17:48 | 32.04525 | -9.76056 | 35993 ft | 476 kts | 47° |
| 2026-05-05 17:49 | 32.09150 | -9.70503 | 35992 ft | 477 kts | 46° |
| 2026-05-05 17:49 | 32.13813 | -9.65002 | 35993 ft | 476 kts | 46° |
| 2026-05-05 17:50 | 32.18469 | -9.59461 | 35993 ft | 477 kts | 46° |
| 2026-05-05 17:50 | 32.23150 | -9.53874 | 35993 ft | 478 kts | 46° |
| 2026-05-05 17:51 | 32.27809 | -9.48299 | 35992 ft | 476 kts | 46° |
| 2026-05-05 17:51 | 32.32410 | -9.42751 | 35993 ft | 476 kts | 46° |
| 2026-05-05 17:52 | 32.37041 | -9.37145 | 35993 ft | 477 kts | 46° |
| 2026-05-05 17:52 | 32.41673 | -9.31546 | 35992 ft | 477 kts | 47° |
| 2026-05-05 17:53 | 32.46323 | -9.25944 | 35993 ft | 476 kts | 47° |
| 2026-05-05 17:53 | 32.50970 | -9.20360 | 35992 ft | 477 kts | 47° |
| 2026-05-05 17:54 | 32.55637 | -9.14744 | 35993 ft | 477 kts | 47° |
| 2026-05-05 17:54 | 32.60275 | -9.09164 | 35990 ft | 477 kts | 47° |
| 2026-05-05 17:55 | 32.64918 | -9.03547 | 35984 ft | 480 kts | 47° |
| 2026-05-05 17:55 | 32.69603 | -8.97856 | 35992 ft | 483 kts | 47° |
| 2026-05-05 17:56 | 32.74270 | -8.92145 | 36010 ft | 485 kts | 47° |
| 2026-05-05 17:56 | 32.79004 | -8.86365 | 36039 ft | 488 kts | 46° |
| 2026-05-05 17:57 | 32.83740 | -8.80615 | 36047 ft | 488 kts | 46° |
| 2026-05-05 17:57 | 32.88459 | -8.74850 | 36046 ft | 486 kts | 47° |
| 2026-05-05 17:58 | 32.93119 | -8.69097 | 36047 ft | 486 kts | 47° |
| 2026-05-05 17:58 | 32.97819 | -8.63321 | 36048 ft | 487 kts | 46° |
| 2026-05-05 17:59 | 33.02569 | -8.57541 | 36046 ft | 486 kts | 47° |
| 2026-05-05 17:59 | 33.07250 | -8.51757 | 36047 ft | 485 kts | 47° |
| 2026-05-05 18:00 | 33.11912 | -8.45972 | 36047 ft | 485 kts | 47° |
| 2026-05-05 18:00 | 33.16595 | -8.40207 | 36046 ft | 486 kts | 45° |
| 2026-05-05 18:01 | 33.21851 | -8.35150 | 36048 ft | 485 kts | 33° |
| 2026-05-05 18:01 | 33.27536 | -8.30809 | 36047 ft | 486 kts | 33° |
| 2026-05-05 18:02 | 33.33207 | -8.26410 | 36047 ft | 486 kts | 33° |
| 2026-05-05 18:02 | 33.38887 | -8.22075 | 35911 ft | 488 kts | 32° |
| 2026-05-05 18:03 | 33.44600 | -8.17769 | 35912 ft | 485 kts | 33° |
| 2026-05-05 18:03 | 33.50324 | -8.13415 | 35912 ft | 486 kts | 33° |
| 2026-05-05 18:04 | 33.56008 | -8.09072 | 35912 ft | 487 kts | 33° |
| 2026-05-05 18:04 | 33.61721 | -8.04715 | 35912 ft | 487 kts | 33° |
| 2026-05-05 18:05 | 33.67436 | -8.00362 | 35912 ft | 487 kts | 33° |
| 2026-05-05 18:05 | 33.73167 | -7.96020 | 35911 ft | 486 kts | 32° |
| 2026-05-05 18:06 | 33.78893 | -7.91691 | 35912 ft | 487 kts | 32° |
| 2026-05-05 18:06 | 33.84636 | -7.87333 | 35911 ft | 487 kts | 32° |
| 2026-05-05 18:07 | 33.90329 | -7.82953 | 35911 ft | 487 kts | 33° |
| 2026-05-05 18:07 | 33.95995 | -7.78559 | 35911 ft | 487 kts | 33° |
| 2026-05-05 18:08 | 34.01712 | -7.74190 | 35912 ft | 487 kts | 32° |
| 2026-05-05 18:08 | 34.07418 | -7.69838 | 35911 ft | 486 kts | 32° |
| 2026-05-05 18:09 | 34.13097 | -7.65430 | 35912 ft | 487 kts | 33° |
| 2026-05-05 18:09 | 34.18785 | -7.61029 | 35912 ft | 488 kts | 32° |
| 2026-05-05 18:10 | 34.24506 | -7.56637 | 35912 ft | 486 kts | 32° |
| 2026-05-05 18:10 | 34.30208 | -7.52245 | 35911 ft | 487 kts | 32° |
| 2026-05-05 18:11 | 34.35875 | -7.47872 | 35911 ft | 487 kts | 32° |
| 2026-05-05 18:11 | 34.41594 | -7.43409 | 35911 ft | 487 kts | 33° |
| 2026-05-05 18:12 | 34.47250 | -7.38966 | 35912 ft | 486 kts | 33° |
| 2026-05-05 18:12 | 34.52931 | -7.34527 | 35912 ft | 487 kts | 33° |
| 2026-05-05 18:13 | 34.58641 | -7.30092 | 35912 ft | 487 kts | 33° |
| 2026-05-05 18:13 | 34.64338 | -7.25683 | 35911 ft | 486 kts | 33° |
| 2026-05-05 18:14 | 34.69976 | -7.21263 | 35912 ft | 487 kts | 33° |
| 2026-05-05 18:14 | 34.75670 | -7.16719 | 35911 ft | 486 kts | 33° |
| 2026-05-05 18:15 | 34.81319 | -7.12265 | 35911 ft | 484 kts | 33° |
| 2026-05-05 18:15 | 34.86980 | -7.07854 | 35912 ft | 483 kts | 33° |
| 2026-05-05 18:16 | 34.92617 | -7.03437 | 35912 ft | 480 kts | 34° |
| 2026-05-05 18:16 | 34.98195 | -6.99050 | 35911 ft | 476 kts | 34° |
| 2026-05-05 18:17 | 35.03739 | -6.94685 | 35912 ft | 476 kts | 34° |
| 2026-05-05 18:17 | 35.09265 | -6.90317 | 36011 ft | 475 kts | 34° |
| 2026-05-05 18:18 | 35.14794 | -6.85901 | 36003 ft | 477 kts | 35° |
| 2026-05-05 18:18 | 35.20340 | -6.81447 | 35993 ft | 477 kts | 35° |
| 2026-05-05 18:19 | 35.25830 | -6.77023 | 35993 ft | 476 kts | 34° |
| 2026-05-05 18:19 | 35.31362 | -6.72605 | 35993 ft | 477 kts | 34° |
| 2026-05-05 18:20 | 35.36929 | -6.68173 | 35993 ft | 477 kts | 33° |
| 2026-05-05 18:20 | 35.42580 | -6.63917 | 35992 ft | 476 kts | 33° |
| 2026-05-05 18:21 | 35.48206 | -6.59644 | 35992 ft | 477 kts | 33° |
| 2026-05-05 18:21 | 35.53809 | -6.55345 | 35992 ft | 477 kts | 33° |
| 2026-05-05 18:22 | 35.59391 | -6.51015 | 35993 ft | 476 kts | 33° |
| 2026-05-05 18:22 | 35.64945 | -6.46672 | 35992 ft | 476 kts | 34° |
| 2026-05-05 18:23 | 35.70525 | -6.42305 | 35992 ft | 476 kts | 33° |
| 2026-05-05 18:23 | 35.76135 | -6.37939 | 35993 ft | 477 kts | 33° |
| 2026-05-05 18:24 | 35.81708 | -6.33592 | 35993 ft | 477 kts | 34° |
| 2026-05-05 18:24 | 35.87241 | -6.29117 | 35992 ft | 475 kts | 37° |
| 2026-05-05 18:25 | 35.92643 | -6.24425 | 35993 ft | 476 kts | 37° |
| 2026-05-05 18:25 | 35.98060 | -6.19774 | 35993 ft | 476 kts | 36° |
| 2026-05-05 18:26 | 36.03497 | -6.15131 | 35993 ft | 476 kts | 36° |
| 2026-05-05 18:26 | 36.08934 | -6.10505 | 35993 ft | 476 kts | 36° |
| 2026-05-05 18:27 | 36.14337 | -6.05829 | 35993 ft | 475 kts | 37° |
| 2026-05-05 18:27 | 36.19754 | -6.01097 | 35992 ft | 476 kts | 38° |
| 2026-05-05 18:28 | 36.26366 | -5.92234 | 34751 ft | 465 kts | 62° |
| 2026-05-05 18:28 | 36.27965 | -5.88802 | 34020 ft | 464 kts | 62° |
| 2026-05-05 18:28 | 36.29613 | -5.85363 | 33263 ft | 463 kts | 61° |
| 2026-05-05 18:29 | 36.31280 | -5.81962 | 32494 ft | 463 kts | 61° |
| 2026-05-05 18:29 | 36.32933 | -5.78580 | 31712 ft | 463 kts | 62° |
| 2026-05-05 18:29 | 36.34580 | -5.75167 | 30907 ft | 463 kts | 62° |
| 2026-05-05 18:29 | 36.36214 | -5.71735 | 30072 ft | 468 kts | 62° |
| 2026-05-05 18:30 | 36.37897 | -5.68192 | 29181 ft | 480 kts | 62° |
| 2026-05-05 18:30 | 36.39579 | -5.64655 | 28255 ft | 485 kts | 62° |
| 2026-05-05 18:30 | 36.41290 | -5.61058 | 27283 ft | 486 kts | 62° |
| 2026-05-05 18:30 | 36.43016 | -5.57420 | 26260 ft | 487 kts | 62° |
| 2026-05-05 18:31 | 36.44722 | -5.53818 | 25365 ft | 483 kts | 62° |
| 2026-05-05 18:31 | 36.46384 | -5.50298 | 24705 ft | 476 kts | 62° |
| 2026-05-05 18:31 | 36.47856 | -5.46635 | 23983 ft | 469 kts | 70° |
| 2026-05-05 18:31 | 36.48930 | -5.42814 | 23264 ft | 463 kts | 78° |
| 2026-05-05 18:32 | 36.49419 | -5.38970 | 23021 ft | 448 kts | 90° |
| 2026-05-05 18:32 | 36.49453 | -5.35122 | 22929 ft | 451 kts | 96° |
| 2026-05-05 18:32 | 36.49120 | -5.31213 | 22349 ft | 454 kts | 103° |
| 2026-05-05 18:32 | 36.48630 | -5.27574 | 21699 ft | 447 kts | 103° |
| 2026-05-05 18:33 | 36.48121 | -5.23640 | 20967 ft | 440 kts | 103° |
| 2026-05-05 18:33 | 36.47657 | -5.19914 | 20259 ft | 434 kts | 103° |
| 2026-05-05 18:33 | 36.47197 | -5.16271 | 19561 ft | 429 kts | 103° |
| 2026-05-05 18:33 | 36.46729 | -5.12627 | 18858 ft | 426 kts | 103° |
| 2026-05-05 18:34 | 36.46263 | -5.09015 | 18152 ft | 423 kts | 103° |
| 2026-05-05 18:34 | 36.45800 | -5.05431 | 17445 ft | 420 kts | 103° |
| 2026-05-05 18:34 | 36.45339 | -5.01881 | 16740 ft | 416 kts | 103° |
| 2026-05-05 18:34 | 36.44878 | -4.98355 | 16030 ft | 414 kts | 103° |
| 2026-05-05 18:35 | 36.44416 | -4.94829 | 15394 ft | 410 kts | 103° |
| 2026-05-05 18:35 | 36.43960 | -4.91359 | 14954 ft | 407 kts | 103° |
| 2026-05-05 18:35 | 36.43501 | -4.87884 | 14681 ft | 409 kts | 102° |
| 2026-05-05 18:35 | 36.43035 | -4.84363 | 14485 ft | 409 kts | 102° |
| 2026-05-05 18:36 | 36.42594 | -4.81004 | 14181 ft | 388 kts | 102° |
| 2026-05-05 18:36 | 36.42175 | -4.77779 | 13676 ft | 368 kts | 101° |
| 2026-05-05 18:36 | 36.41866 | -4.74681 | 13302 ft | 349 kts | 99° |
| 2026-05-05 18:36 | 36.41621 | -4.71768 | 12929 ft | 332 kts | 99° |
| 2026-05-05 18:37 | 36.41374 | -4.69025 | 12798 ft | 310 kts | 100° |
| 2026-05-05 18:37 | 36.41135 | -4.66437 | 12621 ft | 293 kts | 100° |
| 2026-05-05 18:37 | 36.40902 | -4.63950 | 12178 ft | 287 kts | 100° |
| 2026-05-05 18:37 | 36.40674 | -4.61515 | 11702 ft | 284 kts | 100° |
| 2026-05-05 18:38 | 36.40444 | -4.59068 | 11188 ft | 282 kts | 99° |
| 2026-05-05 18:38 | 36.40217 | -4.56664 | 10667 ft | 282 kts | 99° |
| 2026-05-05 18:38 | 36.39993 | -4.54263 | 10183 ft | 279 kts | 97° |
| 2026-05-05 18:38 | 36.40098 | -4.51861 | 9617 ft | 282 kts | 71° |
| 2026-05-05 18:39 | 36.41098 | -4.49852 | 9139 ft | 272 kts | 38° |
| 2026-05-05 18:39 | 36.42533 | -4.48380 | 8757 ft | 266 kts | 39° |
| 2026-05-05 18:39 | 36.43808 | -4.46749 | 8197 ft | 266 kts | 44° |
| 2026-05-05 18:39 | 36.45082 | -4.45062 | 7608 ft | 264 kts | 44° |
| 2026-05-05 18:40 | 36.46302 | -4.43390 | 7073 ft | 261 kts | 44° |
| 2026-05-05 18:40 | 36.47496 | -4.41732 | 6571 ft | 256 kts | 44° |
| 2026-05-05 18:40 | 36.48683 | -4.40088 | 6010 ft | 253 kts | 44° |
| 2026-05-05 18:40 | 36.49808 | -4.38525 | 5653 ft | 236 kts | 44° |
| 2026-05-05 18:41 | 36.50880 | -4.37027 | 5065 ft | 233 kts | 44° |
| 2026-05-05 18:41 | 36.52006 | -4.35622 | 4421 ft | 228 kts | 35° |
| 2026-05-05 18:41 | 36.53239 | -4.34417 | 3791 ft | 225 kts | 33° |
| 2026-05-05 18:41 | 36.54558 | -4.33505 | 3203 ft | 215 kts | 18° |
| 2026-05-05 18:42 | 36.55970 | -4.33244 | 2999 ft | 197 kts | 348° |
| 2026-05-05 18:42 | 36.57164 | -4.33997 | 2959 ft | 195 kts | 315° |
| 2026-05-05 18:42 | 36.57845 | -4.35414 | 2745 ft | 187 kts | 295° |
| 2026-05-05 18:42 | 36.58440 | -4.36786 | 2495 ft | 173 kts | 305° |
| 2026-05-05 18:43 | 36.59112 | -4.37980 | 2270 ft | 164 kts | 308° |
| 2026-05-05 18:43 | 36.59796 | -4.39115 | 2054 ft | 165 kts | 311° |
| 2026-05-05 18:43 | 36.60554 | -4.40207 | 1825 ft | 165 kts | 313° |
| 2026-05-05 18:43 | 36.61315 | -4.41286 | 1601 ft | 164 kts | 314° |
| 2026-05-05 18:44 | 36.62036 | -4.42289 | 1390 ft | 147 kts | 314° |
| 2026-05-05 18:44 | 36.62724 | -4.43250 | 1185 ft | 149 kts | 315° |
| 2026-05-05 18:44 | 36.63397 | -4.44194 | 983 ft | 145 kts | 313° |
| 2026-05-05 18:44 | 36.64079 | -4.45140 | 788 ft | 149 kts | 315° |
| 2026-05-05 18:45 | 36.64761 | -4.46099 | 585 ft | 145 kts | 313° |
| 2026-05-05 18:45 | 36.65424 | -4.47038 | 382 ft | 147 kts | 315° |
| 2026-05-05 18:45 | 36.66112 | -4.47985 | 193 ft | 147 kts | 315° |
| 2026-05-05 18:45 | 36.66781 | -4.48918 | 34 ft | 138 kts | 312° |
| 2026-05-05 18:46 | 36.67248 | -4.49571 | 38 ft | 69 kts | 311° |
| 2026-05-05 18:46 | 36.67525 | -4.49958 | 44 ft | 50 kts | 311° |
| 2026-05-05 18:46 | 36.67725 | -4.50179 | 47 ft | 26 kts | 334° |
| 2026-05-05 18:46 | 36.67843 | -4.50235 | 45 ft | 15 kts | 354° |
| 2026-05-05 18:47 | 36.67851 | -4.50122 | 43 ft | 19 kts | 131° |
| 2026-05-05 18:47 | 36.67765 | -4.49999 | 42 ft | 18 kts | 133° |
| 2026-05-05 18:47 | 36.67680 | -4.49883 | 40 ft | 18 kts | 133° |
| 2026-05-05 18:47 | 36.67590 | -4.49757 | 39 ft | 20 kts | 131° |
| 2026-05-05 18:48 | 36.67493 | -4.49620 | 36 ft | 21 kts | 132° |
| 2026-05-05 18:48 | 36.67395 | -4.49486 | 36 ft | 21 kts | 132° |
| 2026-05-05 18:48 | 36.67322 | -4.49381 | 37 ft | 14 kts | 131° |
| 2026-05-05 18:48 | 36.67273 | -4.49298 | 37 ft | 11 kts | 95° |
| 2026-05-05 18:49 | 36.67322 | -4.49243 | 38 ft | 11 kts | 16° |
| 2026-05-05 18:49 | 36.67379 | -4.49199 | 40 ft | 7 kts | 40° |
| 2026-05-05 18:49 | 36.67413 | -4.49181 | 42 ft | 5 kts | 346° |
| 2026-05-05 18:49 | 36.67450 | -4.49204 | 43 ft | 4 kts | 332° |
| 2026-05-05 18:50 | 36.67463 | -4.49213 | 43 ft | 0 kts | 330° |